Terminal Aerodrome Forecast
Issued by NWS Tuscon, AZ

Home | Current Version | Previous Version | Text Only | Print | Product List | Glossary On
Versions: 1 2 3 4 5 6 7 8 9 10 11 12 13
000
FTUS45 KTWC 231100
TAFDUG
TAF
KDUG 231120Z 2312/2412 VRB03KT P6SM SCT250
     FM231700 23012G20KT P6SM SCT250
     FM232100 24022G32KT P6SM SCT250
     FM240300 27011KT P6SM SCT250=

USA.gov is the U.S. government's official web portal to all federal, state and local government web resources and services.